Time;durP1;ratioP1;P1;durP2;ratioP2;P2;SDS_P1;SDS_P2;PMS_P1;PMS_P2;Temp;Humidity;BMP_temperature;BMP_pressure;BME280_temperature;BME280_humidity;BME280_pressure;Samples;Min_cycle;Max_cycle;Signal;HPM_P1;HPM_P2
2023/09/24 00:00:13;;;;;;;3.70;2.40;;;12.80;99.90;;;;;;5078296;28;20433;-71
2023/09/24 00:02:40;;;;;;;4.20;2.50;;;12.80;99.90;;;;;;5080051;28;20435;-72
2023/09/24 00:05:08;;;;;;;3.20;2.30;;;12.80;99.90;;;;;;5082407;28;20442;-71
2023/09/24 00:07:34;;;;;;;3.05;2.03;;;12.70;99.90;;;;;;5092663;28;20430;-71
2023/09/24 00:10:03;;;;;;;2.80;2.10;;;12.70;99.90;;;;;;5090340;28;20414;-72
2023/09/24 00:12:30;;;;;;;4.15;2.05;;;12.70;99.90;;;;;;5066648;28;20876;-73
2023/09/24 00:14:57;;;;;;;5.10;2.30;;;12.60;99.90;;;;;;5064792;28;20428;-71
2023/09/24 00:17:24;;;;;;;3.75;2.70;;;12.60;99.90;;;;;;5060041;28;20990;-71
2023/09/24 00:19:50;;;;;;;3.65;2.40;;;12.60;99.90;;;;;;5065102;28;20435;-73
2023/09/24 00:22:17;;;;;;;3.45;2.20;;;12.60;99.90;;;;;;5058325;28;20444;-71
2023/09/24 00:24:45;;;;;;;3.27;2.40;;;12.60;99.90;;;;;;5071341;28;20431;-72
2023/09/24 00:27:14;;;;;;;4.80;2.15;;;12.60;99.90;;;;;;5068934;28;20429;-71
2023/09/24 00:29:41;;;;;;;4.40;2.17;;;12.50;99.90;;;;;;5068204;28;20431;-71
2023/09/24 00:32:07;;;;;;;4.78;2.10;;;12.50;99.90;;;;;;5067540;28;20439;-70
2023/09/24 00:34:34;;;;;;;3.03;2.20;;;12.50;99.90;;;;;;5070791;28;20865;-71
2023/09/24 00:37:01;;;;;;;2.40;1.90;;;12.50;99.90;;;;;;5057043;28;20428;-71
2023/09/24 00:39:28;;;;;;;3.60;1.83;;;12.40;99.90;;;;;;5067252;28;20446;-72
2023/09/24 00:41:55;;;;;;;2.83;2.00;;;12.40;99.90;;;;;;5061700;28;20432;-71
2023/09/24 00:44:23;;;;;;;3.47;2.10;;;12.40;99.90;;;;;;5060222;28;20929;-72
2023/09/24 00:46:50;;;;;;;3.05;1.80;;;12.30;99.90;;;;;;5066527;28;20435;-72
2023/09/24 00:49:17;;;;;;;3.10;2.03;;;12.30;99.90;;;;;;5067139;28;20917;-71
2023/09/24 00:51:44;;;;;;;3.38;1.90;;;12.30;99.90;;;;;;5067619;28;20438;-71
2023/09/24 00:54:12;;;;;;;4.00;2.10;;;12.20;99.90;;;;;;5068677;28;21166;-71
2023/09/24 00:56:39;;;;;;;5.00;2.50;;;12.20;99.90;;;;;;5067590;28;20427;-71
2023/09/24 00:59:08;;;;;;;3.50;2.00;;;12.20;99.90;;;;;;5062394;28;20813;-71
2023/09/24 01:01:36;;;;;;;2.90;2.00;;;12.20;99.90;;;;;;5064724;28;20480;-71
2023/09/24 01:04:05;;;;;;;3.20;2.10;;;12.20;99.90;;;;;;5068673;28;20427;-71
2023/09/24 01:06:33;;;;;;;3.15;2.10;;;12.20;99.90;;;;;;5066518;28;20446;-71
2023/09/24 01:09:00;;;;;;;3.25;2.00;;;12.20;99.90;;;;;;5064790;28;20513;-72
2023/09/24 01:11:31;;;;;;;2.73;2.13;;;12.20;99.90;;;;;;5078048;28;20524;-73
2023/09/24 01:13:58;;;;;;;6.40;2.30;;;12.20;99.90;;;;;;5087281;28;20502;-71
2023/09/24 01:16:24;;;;;;;3.17;2.40;;;12.20;99.90;;;;;;5084394;28;20435;-71
2023/09/24 01:18:53;;;;;;;5.53;2.67;;;12.20;99.90;;;;;;5085449;28;20425;-71
2023/09/24 01:21:20;;;;;;;3.75;2.30;;;12.20;99.90;;;;;;5084972;28;20463;-71
2023/09/24 01:23:49;;;;;;;5.20;2.40;;;12.20;99.90;;;;;;5089665;28;20865;-70
2023/09/24 01:26:19;;;;;;;3.20;1.80;;;12.20;99.90;;;;;;5087480;28;20784;-72
2023/09/24 01:28:47;;;;;;;3.17;2.20;;;12.20;99.90;;;;;;5086953;28;20425;-71
2023/09/24 01:31:15;;;;;;;3.78;2.40;;;12.10;99.90;;;;;;5084766;28;20429;-70
2023/09/24 01:33:43;;;;;;;4.28;2.10;;;12.10;99.90;;;;;;5087150;28;20643;-71
2023/09/24 01:36:10;;;;;;;3.90;2.50;;;12.10;99.90;;;;;;5087366;28;20435;-72
2023/09/24 01:38:39;;;;;;;5.45;2.40;;;12.00;99.90;;;;;;5087239;28;20799;-72
2023/09/24 01:41:09;;;;;;;4.47;2.45;;;12.00;99.90;;;;;;5085890;28;20465;-71
2023/09/24 01:43:36;;;;;;;3.20;2.40;;;12.00;99.90;;;;;;5086134;28;20433;-71
2023/09/24 01:46:05;;;;;;;2.83;2.00;;;12.00;99.90;;;;;;5082934;28;20535;-71
2023/09/24 01:48:33;;;;;;;6.72;2.40;;;11.90;99.90;;;;;;5086484;28;20684;-71
2023/09/24 01:51:05;;;;;;;4.10;2.70;;;11.90;99.90;;;;;;5080497;28;20487;-71
2023/09/24 01:53:32;;;;;;;5.47;2.90;;;11.90;99.90;;;;;;5084001;28;20842;-71
2023/09/24 01:56:00;;;;;;;3.78;2.67;;;11.90;99.90;;;;;;5081482;28;21034;-71
2023/09/24 01:58:28;;;;;;;4.45;2.65;;;11.90;99.90;;;;;;5083999;28;20998;-71
2023/09/24 02:00:55;;;;;;;4.88;3.00;;;12.00;99.90;;;;;;5089652;28;20462;-70
2023/09/24 02:03:22;;;;;;;3.15;2.60;;;11.90;99.90;;;;;;5094453;28;20425;-71
2023/09/24 02:05:49;;;;;;;4.60;2.70;;;11.90;99.90;;;;;;5087409;28;21027;-70
2023/09/24 02:08:16;;;;;;;3.70;2.60;;;11.90;99.90;;;;;;5088268;28;20437;-73
2023/09/24 02:10:43;;;;;;;4.00;2.60;;;11.90;99.90;;;;;;5080963;28;20944;-71
2023/09/24 02:13:11;;;;;;;4.10;2.80;;;11.90;99.90;;;;;;5060591;28;20437;-72
2023/09/24 02:15:40;;;;;;;4.22;2.80;;;11.90;99.90;;;;;;5062112;28;20611;-72
2023/09/24 02:18:07;;;;;;;5.33;2.60;;;11.80;99.90;;;;;;5060520;28;20467;-71
2023/09/24 02:20:33;;;;;;;3.90;2.67;;;11.80;99.90;;;;;;5057670;28;20431;-71
2023/09/24 02:23:02;;;;;;;2.57;2.20;;;11.80;99.90;;;;;;5067215;28;20427;-71
2023/09/24 02:25:31;;;;;;;3.67;2.50;;;11.80;99.90;;;;;;5067697;28;20427;-71
2023/09/24 02:27:58;;;;;;;4.50;2.65;;;11.80;99.90;;;;;;5064506;28;20435;-71
2023/09/24 02:30:27;;;;;;;3.40;2.67;;;11.80;99.90;;;;;;5061416;28;20510;-71
2023/09/24 02:32:57;;;;;;;3.13;2.40;;;11.70;99.90;;;;;;5064985;28;20435;-72
2023/09/24 02:35:25;;;;;;;3.50;2.60;;;11.70;99.90;;;;;;5062429;28;20427;-72
2023/09/24 02:37:52;;;;;;;3.78;2.58;;;11.60;99.90;;;;;;5061708;28;20449;-71
2023/09/24 02:40:22;;;;;;;3.67;2.25;;;11.60;99.90;;;;;;5061797;28;20447;-72
2023/09/24 02:42:52;;;;;;;3.60;2.47;;;11.60;99.90;;;;;;5062969;28;20463;-72
2023/09/24 02:45:19;;;;;;;4.57;2.40;;;11.60;99.90;;;;;;5061083;28;20429;-71
2023/09/24 02:47:48;;;;;;;5.43;3.28;;;11.50;99.90;;;;;;5063911;28;20921;-72
2023/09/24 02:50:18;;;;;;;4.20;2.70;;;11.50;99.90;;;;;;5061999;28;20435;-72
2023/09/24 02:52:47;;;;;;;4.10;2.55;;;11.50;99.90;;;;;;5060546;28;20467;-72
2023/09/24 02:55:15;;;;;;;3.83;2.40;;;11.50;99.90;;;;;;5063025;28;20520;-72
2023/09/24 02:57:45;;;;;;;4.10;2.50;;;11.50;99.90;;;;;;5060767;28;20440;-72
2023/09/24 03:00:17;;;;;;;2.65;2.38;;;11.50;99.90;;;;;;5061009;28;20503;-72
2023/09/24 03:02:44;;;;;;;4.25;2.50;;;11.40;99.90;;;;;;5061970;28;20633;-71
2023/09/24 03:05:13;;;;;;;3.20;2.20;;;11.40;99.90;;;;;;5063139;28;20537;-71
2023/09/24 03:07:44;;;;;;;4.10;2.33;;;11.40;99.90;;;;;;5064378;28;21090;-72
2023/09/24 03:10:13;;;;;;;4.93;2.22;;;11.40;99.90;;;;;;5063068;28;21159;-72
2023/09/24 03:12:40;;;;;;;3.80;2.50;;;11.40;99.90;;;;;;5077963;28;20895;-71
2023/09/24 03:15:10;;;;;;;4.00;2.30;;;11.40;99.90;;;;;;5064271;28;20429;-72
2023/09/24 03:17:37;;;;;;;4.78;2.50;;;11.40;99.90;;;;;;5075776;28;20425;-72
2023/09/24 03:20:14;;;;;;;5.18;2.50;;;11.40;99.90;;;;;;5071650;28;20442;-72
2023/09/24 03:22:43;;;;;;;4.32;2.30;;;11.40;99.90;;;;;;5071287;28;20923;-72
2023/09/24 03:25:11;;;;;;;2.92;2.17;;;11.40;99.90;;;;;;5072166;28;20508;-72
2023/09/24 03:27:39;;;;;;;4.20;2.80;;;11.40;99.90;;;;;;5075388;28;20436;-72
2023/09/24 03:30:09;;;;;;;4.85;2.60;;;11.40;99.90;;;;;;5068617;28;20979;-72
2023/09/24 03:32:36;;;;;;;3.90;2.80;;;11.40;99.90;;;;;;5069053;28;20429;-72
2023/09/24 03:35:06;;;;;;;4.22;2.80;;;11.40;99.90;;;;;;5068748;28;20427;-73
2023/09/24 03:37:33;;;;;;;4.35;2.88;;;11.40;99.90;;;;;;5070819;28;20435;-72
2023/09/24 03:40:01;;;;;;;3.67;2.40;;;11.40;99.90;;;;;;5074090;28;20438;-72
2023/09/24 03:42:28;;;;;;;4.60;2.78;;;11.40;99.90;;;;;;5076775;28;20430;-72
2023/09/24 03:44:55;;;;;;;5.30;2.50;;;11.40;99.90;;;;;;5072305;28;20429;-71
2023/09/24 03:47:21;;;;;;;3.85;2.83;;;11.40;99.90;;;;;;5073226;28;20903;-72
2023/09/24 03:49:48;;;;;;;4.05;2.90;;;11.30;99.90;;;;;;5069620;28;20435;-72
2023/09/24 03:52:15;;;;;;;5.00;2.90;;;11.40;99.90;;;;;;5088858;22;20435;-71
2023/09/24 03:54:41;;;;;;;4.00;2.67;;;11.30;99.90;;;;;;5073757;28;20536;-72
2023/09/24 03:57:10;;;;;;;4.03;2.80;;;11.30;99.90;;;;;;5069750;28;20452;-71
2023/09/24 03:59:37;;;;;;;4.93;3.10;;;11.30;99.90;;;;;;5074929;28;20457;-71
2023/09/24 04:02:06;;;;;;;4.82;2.90;;;11.30;99.90;;;;;;5071229;28;20443;-71
2023/09/24 04:04:32;;;;;;;3.15;2.63;;;11.30;99.90;;;;;;5060761;28;20534;-70
2023/09/24 04:06:59;;;;;;;5.70;3.10;;;11.30;99.90;;;;;;5062083;28;20515;-71
2023/09/24 04:09:26;;;;;;;3.78;2.83;;;11.30;99.90;;;;;;5064114;28;20454;-71
2023/09/24 04:11:53;;;;;;;4.63;2.80;;;11.30;99.90;;;;;;5061057;28;21027;-71
2023/09/24 04:14:21;;;;;;;3.80;3.25;;;11.30;99.90;;;;;;5063082;28;20417;-71
2023/09/24 04:16:47;;;;;;;3.10;2.80;;;11.30;99.90;;;;;;5068077;28;20741;-71
2023/09/24 04:19:16;;;;;;;5.30;2.97;;;11.20;99.90;;;;;;5066649;28;20442;-71
2023/09/24 04:21:42;;;;;;;3.88;2.60;;;11.20;99.90;;;;;;5067519;28;20450;-71
2023/09/24 04:24:09;;;;;;;3.28;2.80;;;11.20;99.90;;;;;;5066717;28;20429;-71
2023/09/24 04:26:36;;;;;;;4.05;2.95;;;11.20;99.90;;;;;;5070980;28;21127;-71
2023/09/24 04:29:03;;;;;;;4.40;3.30;;;11.10;99.90;;;;;;5066065;28;20456;-70
2023/09/24 04:31:31;;;;;;;5.40;3.40;;;11.10;99.90;;;;;;5069503;28;20767;-70
2023/09/24 04:33:58;;;;;;;4.00;3.10;;;11.10;99.90;;;;;;5064307;28;20426;-71
2023/09/24 04:36:24;;;;;;;4.63;3.08;;;11.10;99.90;;;;;;5063004;28;20435;-71
2023/09/24 04:38:53;;;;;;;4.22;3.20;;;11.10;99.90;;;;;;5062712;28;20510;-70
2023/09/24 04:41:20;;;;;;;3.72;3.25;;;11.00;99.90;;;;;;5063707;28;20550;-70
2023/09/24 04:43:47;;;;;;;4.00;3.60;;;11.00;99.90;;;;;;5071564;28;20532;-72
2023/09/24 04:46:14;;;;;;;4.70;3.20;;;10.90;99.90;;;;;;5060966;28;20446;-71
2023/09/24 04:48:42;;;;;;;5.20;3.40;;;10.90;99.90;;;;;;5063343;28;20654;-70
2023/09/24 04:51:09;;;;;;;4.60;3.13;;;10.90;99.90;;;;;;5058675;28;20548;-72
2023/09/24 04:53:36;;;;;;;4.80;3.30;;;10.90;99.90;;;;;;5063539;28;20456;-72
2023/09/24 04:56:07;;;;;;;4.30;3.40;;;10.90;99.90;;;;;;5066906;28;20578;-70
2023/09/24 04:58:36;;;;;;;4.00;3.60;;;10.90;99.90;;;;;;5065563;28;20514;-70
2023/09/24 05:01:07;;;;;;;4.78;3.95;;;10.80;99.90;;;;;;5063954;28;20896;-70
2023/09/24 05:03:36;;;;;;;4.43;3.58;;;10.80;99.90;;;;;;5066785;28;20423;-70
2023/09/24 05:06:05;;;;;;;3.47;3.15;;;10.70;99.90;;;;;;5060330;28;20663;-72
2023/09/24 05:08:32;;;;;;;4.07;3.67;;;10.80;99.90;;;;;;5056255;28;20991;-70
2023/09/24 05:10:59;;;;;;;6.10;3.50;;;10.70;99.90;;;;;;5068755;28;20521;-72
2023/09/24 05:13:26;;;;;;;4.97;3.78;;;10.70;99.90;;;;;;5061759;28;20519;-70
2023/09/24 05:15:54;;;;;;;4.03;3.63;;;10.70;99.90;;;;;;5058510;28;20433;-69
2023/09/24 05:18:21;;;;;;;3.70;3.40;;;10.70;99.90;;;;;;5061848;28;20521;-69
2023/09/24 05:20:48;;;;;;;5.43;3.90;;;10.70;99.90;;;;;;5069795;28;20586;-70
2023/09/24 05:23:16;;;;;;;4.05;3.65;;;10.70;99.90;;;;;;5057713;28;20435;-70
2023/09/24 05:25:43;;;;;;;4.75;4.00;;;10.70;99.90;;;;;;5070450;28;20978;-70
2023/09/24 05:28:09;;;;;;;4.22;3.83;;;10.70;99.90;;;;;;5071216;28;20437;-71
2023/09/24 05:30:36;;;;;;;4.30;3.90;;;10.60;99.90;;;;;;5076404;28;20887;-71
2023/09/24 05:33:04;;;;;;;4.18;3.78;;;10.50;99.90;;;;;;5067534;28;20472;-70
2023/09/24 05:35:31;;;;;;;5.53;4.00;;;10.50;99.90;;;;;;5079257;28;20521;-71
2023/09/24 05:37:58;;;;;;;5.20;4.60;;;10.50;99.90;;;;;;5061917;28;20542;-70
2023/09/24 05:40:26;;;;;;;4.70;4.20;;;10.50;99.90;;;;;;5075628;28;20886;-70
2023/09/24 05:42:53;;;;;;;4.60;3.90;;;10.50;99.90;;;;;;5068444;28;20437;-69
2023/09/24 05:45:20;;;;;;;4.40;4.00;;;10.50;99.90;;;;;;5070178;28;20441;-71
2023/09/24 05:47:47;;;;;;;4.25;3.60;;;10.50;99.90;;;;;;5074636;28;20510;-70
2023/09/24 05:50:14;;;;;;;3.70;3.40;;;10.50;99.90;;;;;;5065441;28;20442;-70
2023/09/24 05:52:41;;;;;;;4.17;3.77;;;10.60;99.90;;;;;;5067423;28;20434;-71
2023/09/24 05:55:08;;;;;;;3.75;3.45;;;10.50;99.90;;;;;;5065941;28;20431;-70
2023/09/24 05:57:37;;;;;;;4.60;4.20;;;10.50;99.90;;;;;;5072956;28;20447;-70
2023/09/24 06:00:04;;;;;;;4.30;3.80;;;10.50;99.90;;;;;;5061927;28;20443;-70
2023/09/24 06:02:31;;;;;;;5.20;3.80;;;10.50;99.90;;;;;;5067918;28;20441;-70
2023/09/24 06:04:58;;;;;;;4.97;3.92;;;10.60;99.90;;;;;;5065597;28;21170;-70
2023/09/24 06:07:28;;;;;;;4.57;3.53;;;10.50;99.90;;;;;;5065991;28;20469;-70
2023/09/24 06:09:55;;;;;;;4.60;3.90;;;10.60;99.90;;;;;;5064122;28;20427;-71
2023/09/24 06:12:22;;;;;;;4.40;3.58;;;10.60;99.90;;;;;;5060437;28;20424;-72
2023/09/24 06:14:50;;;;;;;4.75;3.67;;;10.60;99.90;;;;;;5068661;28;20440;-71
2023/09/24 06:17:16;;;;;;;4.47;3.40;;;10.70;99.90;;;;;;5064394;28;20742;-71
2023/09/24 06:19:43;;;;;;;3.88;3.42;;;10.70;99.90;;;;;;5066548;28;20433;-70
2023/09/24 06:22:10;;;;;;;4.50;3.80;;;10.80;99.90;;;;;;5065986;28;20468;-72
2023/09/24 06:24:36;;;;;;;3.70;3.40;;;10.90;99.90;;;;;;5063872;28;20783;-71
2023/09/24 06:27:04;;;;;;;3.50;3.20;;;10.90;99.90;;;;;;5063160;28;20439;-71
2023/09/24 06:29:34;;;;;;;4.57;4.13;;;11.00;99.90;;;;;;5063476;28;20524;-70
2023/09/24 06:32:02;;;;;;;3.92;3.53;;;11.00;99.90;;;;;;5061171;28;20995;-68
2023/09/24 06:34:30;;;;;;;4.20;3.55;;;11.00;99.90;;;;;;5064688;28;20502;-70
2023/09/24 06:36:56;;;;;;;4.20;3.20;;;11.00;99.90;;;;;;5059840;28;20467;-69
2023/09/24 06:39:25;;;;;;;3.72;3.40;;;11.00;99.90;;;;;;5064358;28;20490;-70
2023/09/24 06:41:52;;;;;;;5.30;3.40;;;11.00;99.90;;;;;;5069216;28;20431;-70
2023/09/24 06:44:22;;;;;;;4.07;3.45;;;11.00;99.90;;;;;;5065559;28;20858;-69
2023/09/24 06:46:49;;;;;;;4.53;3.70;;;11.00;99.90;;;;;;5066379;28;20861;-70
2023/09/24 06:49:18;;;;;;;4.00;3.60;;;11.00;99.90;;;;;;5064964;28;20443;-70
2023/09/24 06:51:45;;;;;;;3.58;3.28;;;11.10;99.90;;;;;;5063541;28;20419;-69
2023/09/24 06:54:11;;;;;;;4.90;3.90;;;11.10;99.90;;;;;;5065668;28;20435;-69
2023/09/24 06:56:38;;;;;;;3.80;3.20;;;11.10;99.90;;;;;;5068196;28;20432;-72
2023/09/24 06:59:09;;;;;;;4.33;3.33;;;11.20;99.90;;;;;;5064921;28;20912;-69
2023/09/24 07:01:36;;;;;;;3.92;3.10;;;11.30;99.90;;;;;;5059330;28;20431;-70
2023/09/24 07:04:03;;;;;;;4.43;3.53;;;11.30;99.90;;;;;;5063012;28;21833;-70
2023/09/24 07:06:31;;;;;;;4.45;3.50;;;11.40;99.90;;;;;;5063699;28;20433;-70
2023/09/24 07:08:59;;;;;;;3.65;3.35;;;11.40;99.90;;;;;;5063193;28;20451;-71
2023/09/24 07:11:30;;;;;;;3.40;3.10;;;11.50;99.90;;;;;;5062226;28;20510;-70
2023/09/24 07:13:57;;;;;;;3.50;3.00;;;11.60;99.90;;;;;;5064958;28;20900;-70
2023/09/24 07:16:25;;;;;;;3.70;3.40;;;11.70;99.90;;;;;;5066898;28;20552;-70
2023/09/24 07:18:53;;;;;;;3.97;3.10;;;11.80;99.90;;;;;;5058202;28;20430;-70
2023/09/24 07:21:20;;;;;;;4.57;3.25;;;11.90;99.90;;;;;;5062450;28;20423;-70
2023/09/24 07:23:51;;;;;;;3.15;2.85;;;12.10;99.90;;;;;;5062558;28;20688;-70
2023/09/24 07:26:18;;;;;;;2.88;2.60;;;12.20;99.90;;;;;;5067152;28;20439;-70
2023/09/24 07:28:45;;;;;;;3.10;2.60;;;12.30;99.90;;;;;;5063173;28;20947;-70
2023/09/24 07:31:15;;;;;;;3.83;2.78;;;12.40;99.90;;;;;;5065903;28;20433;-70
2023/09/24 07:33:44;;;;;;;4.82;2.70;;;12.50;99.90;;;;;;5061150;28;20511;-69
2023/09/24 07:36:11;;;;;;;4.03;2.70;;;12.60;99.90;;;;;;5059152;28;20428;-70
2023/09/24 07:38:38;;;;;;;3.00;2.45;;;12.80;99.90;;;;;;5057715;28;20709;-70
2023/09/24 07:41:07;;;;;;;3.40;2.77;;;12.90;99.90;;;;;;5063550;28;20882;-69
2023/09/24 07:43:34;;;;;;;4.22;2.60;;;13.00;99.90;;;;;;5061588;28;20521;-69
2023/09/24 07:46:01;;;;;;;3.20;2.60;;;13.20;99.90;;;;;;5055982;28;20423;-70
2023/09/24 07:48:27;;;;;;;3.70;2.40;;;13.30;99.90;;;;;;5063276;28;20526;-70
2023/09/24 07:50:55;;;;;;;3.40;2.60;;;13.50;99.90;;;;;;5061023;28;20438;-70
2023/09/24 07:53:23;;;;;;;2.30;2.10;;;13.60;99.90;;;;;;5056214;28;20449;-70
2023/09/24 07:55:55;;;;;;;3.30;2.20;;;13.70;99.90;;;;;;5079110;28;20442;-70
2023/09/24 07:58:24;;;;;;;3.00;2.47;;;13.80;99.90;;;;;;5055491;28;20415;-69
2023/09/24 08:00:50;;;;;;;3.40;2.20;;;13.90;99.90;;;;;;5065677;28;20481;-70
2023/09/24 08:03:17;;;;;;;2.75;2.08;;;14.00;99.90;;;;;;5066357;28;20436;-70
2023/09/24 08:05:44;;;;;;;3.05;2.33;;;14.30;99.40;;;;;;5064055;28;21007;-69
2023/09/24 08:08:11;;;;;;;2.13;1.92;;;14.40;98.70;;;;;;5062628;28;20415;-69
2023/09/24 08:10:38;;;;;;;4.77;2.23;;;14.60;98.80;;;;;;5066219;28;20476;-70
2023/09/24 08:13:05;;;;;;;2.42;2.22;;;14.90;98.50;;;;;;5063977;28;20439;-70
2023/09/24 08:15:34;;;;;;;2.80;2.00;;;15.10;97.20;;;;;;5062425;28;20975;-71
2023/09/24 08:18:01;;;;;;;3.53;2.30;;;15.30;96.40;;;;;;5064537;28;20626;-71
2023/09/24 08:20:27;;;;;;;3.80;2.10;;;15.50;95.40;;;;;;5060972;28;20435;-71
2023/09/24 08:22:54;;;;;;;3.30;2.20;;;15.60;95.10;;;;;;5062644;28;20438;-70
2023/09/24 08:25:21;;;;;;;3.08;2.40;;;15.70;94.50;;;;;;5059573;28;20431;-72
2023/09/24 08:27:48;;;;;;;3.67;2.00;;;15.80;93.80;;;;;;5061902;28;20884;-72
2023/09/24 08:30:15;;;;;;;3.20;1.80;;;16.00;93.60;;;;;;5065513;28;20451;-71
2023/09/24 08:32:43;;;;;;;3.13;2.33;;;16.00;93.20;;;;;;5067546;28;20956;-71
2023/09/24 08:35:10;;;;;;;3.78;1.90;;;16.10;93.10;;;;;;5057045;28;20458;-71
2023/09/24 08:37:36;;;;;;;2.63;1.70;;;16.30;92.90;;;;;;5061408;28;20420;-71
2023/09/24 08:40:04;;;;;;;3.50;1.83;;;16.40;92.40;;;;;;5062702;28;20407;-71
2023/09/24 08:42:33;;;;;;;3.28;1.60;;;16.60;91.90;;;;;;5064425;28;20462;-71
2023/09/24 08:45:11;;;;;;;2.60;1.90;;;16.70;91.30;;;;;;5060487;28;20461;-71
2023/09/24 08:47:39;;;;;;;2.30;1.60;;;16.80;91.20;;;;;;5049007;28;21024;-71
2023/09/24 08:50:08;;;;;;;2.33;1.50;;;16.90;90.40;;;;;;5052114;28;20690;-71
2023/09/24 08:52:37;;;;;;;3.50;1.60;;;17.00;90.60;;;;;;5061188;28;20438;-71
2023/09/24 08:55:05;;;;;;;3.05;2.00;;;17.10;90.50;;;;;;5059479;28;20572;-71
2023/09/24 08:57:33;;;;;;;2.53;1.60;;;17.30;89.30;;;;;;5063614;28;20889;-71
2023/09/24 08:59:59;;;;;;;4.03;1.70;;;17.40;88.50;;;;;;5060944;28;20549;-70
2023/09/24 09:02:26;;;;;;;3.60;1.60;;;17.60;86.20;;;;;;5064763;28;20431;-70
2023/09/24 09:04:55;;;;;;;3.50;1.87;;;17.60;84.80;;;;;;5063561;28;20683;-71
2023/09/24 09:07:23;;;;;;;3.08;1.67;;;17.50;85.10;;;;;;5064771;28;20515;-70
2023/09/24 09:09:54;;;;;;;2.70;1.60;;;17.50;84.90;;;;;;5064733;28;20774;-70
2023/09/24 09:12:22;;;;;;;3.80;1.60;;;17.60;84.20;;;;;;5061706;28;20869;-70
2023/09/24 09:14:48;;;;;;;3.20;1.50;;;17.60;84.90;;;;;;5063459;28;20446;-70
2023/09/24 09:17:15;;;;;;;4.57;1.50;;;17.70;84.60;;;;;;5058821;28;20434;-70
2023/09/24 09:19:52;;;;;;;2.90;1.52;;;17.90;84.00;;;;;;5064447;28;20427;-71
2023/09/24 09:22:20;;;;;;;3.35;1.60;;;18.10;83.30;;;;;;5064566;28;20473;-70
2023/09/24 09:24:50;;;;;;;2.60;1.43;;;18.20;80.50;;;;;;5066600;28;20475;-71
2023/09/24 09:27:17;;;;;;;3.20;1.70;;;18.30;80.40;;;;;;5062698;28;20559;-70
2023/09/24 09:29:43;;;;;;;2.40;1.30;;;18.40;79.60;;;;;;5060441;28;20487;-71
2023/09/24 09:32:10;;;;;;;4.05;1.80;;;18.50;79.20;;;;;;5065967;28;20489;-69
2023/09/24 09:34:37;;;;;;;2.42;1.50;;;18.50;81.00;;;;;;5065642;28;20435;-69
2023/09/24 09:37:17;;;;;;;1.90;1.20;;;18.70;80.40;;;;;;5062516;28;20493;-70
2023/09/24 09:39:44;;;;;;;2.75;1.10;;;18.80;78.80;;;;;;5059010;28;20471;-74
2023/09/24 09:42:18;;;;;;;2.65;1.70;;;18.90;78.40;;;;;;5065714;28;20885;-74
2023/09/24 09:44:46;;;;;;;3.67;2.70;;;18.90;78.40;;;;;;5063923;28;20902;-74
2023/09/24 09:47:16;;;;;;;3.30;1.42;;;19.00;79.20;;;;;;5070693;28;20790;-74
2023/09/24 09:49:49;;;;;;;2.92;1.30;;;19.00;77.20;;;;;;5064636;28;20431;-75
2023/09/24 09:52:19;;;;;;;2.90;1.50;;;19.00;77.50;;;;;;5060888;28;20436;-74
2023/09/24 09:54:48;;;;;;;2.53;1.30;;;19.10;77.30;;;;;;5064999;28;20434;-74
2023/09/24 09:57:17;;;;;;;3.10;1.50;;;19.30;76.10;;;;;;5064451;28;20840;-74
2023/09/24 09:59:45;;;;;;;2.33;1.13;;;19.30;75.10;;;;;;5068155;28;20430;-74
2023/09/24 10:02:12;;;;;;;2.03;1.10;;;19.40;75.10;;;;;;5068123;28;20917;-74
2023/09/24 10:04:39;;;;;;;2.97;1.20;;;19.50;75.40;;;;;;5061012;28;20435;-74
2023/09/24 10:07:07;;;;;;;2.45;1.20;;;19.50;73.00;;;;;;5065520;28;20682;-74
2023/09/24 10:09:39;;;;;;;2.30;1.00;;;19.60;72.90;;;;;;5059345;28;20559;-73
2023/09/24 10:12:07;;;;;;;1.50;0.95;;;19.70;73.40;;;;;;5063901;28;20509;-74
2023/09/24 10:14:36;;;;;;;3.40;1.20;;;19.90;71.70;;;;;;5065186;28;20412;-73
2023/09/24 10:17:26;;;;;;;2.85;1.20;;;20.00;72.50;;;;;;5065620;28;20411;-73
2023/09/24 10:19:54;;;;;;;2.13;1.02;;;20.20;71.70;;;;;;5061326;28;20403;-73
2023/09/24 10:22:24;;;;;;;3.10;1.00;;;20.30;67.30;;;;;;5065762;28;20902;-73
2023/09/24 10:24:51;;;;;;;4.22;1.40;;;20.30;67.50;;;;;;5065534;28;20785;-73
2023/09/24 10:27:25;;;;;;;2.63;1.20;;;20.20;64.90;;;;;;5065145;28;20438;-73
2023/09/24 10:30:08;;;;;;;3.20;1.00;;;20.30;67.80;;;;;;5069084;28;21006;-74
2023/09/24 10:32:46;;;;;;;3.40;1.30;;;20.60;65.30;;;;;;5058476;28;20496;-73
2023/09/24 10:35:13;;;;;;;1.80;1.08;;;20.70;65.40;;;;;;5068277;28;20731;-73
2023/09/24 10:38:04;;;;;;;2.85;1.00;;;20.80;65.30;;;;;;5066935;28;20482;-73
2023/09/24 10:40:33;;;;;;;1.90;0.95;;;21.00;62.50;;;;;;5057733;28;20419;-73
2023/09/24 10:43:17;;;;;;;2.80;1.10;;;21.20;60.70;;;;;;5065806;28;20416;-73
2023/09/24 10:45:46;;;;;;;3.03;1.20;;;21.30;60.30;;;;;;5068800;28;20527;-75
2023/09/24 10:48:14;;;;;;;2.45;1.20;;;21.10;60.00;;;;;;5066897;28;20428;-74
2023/09/24 10:50:43;;;;;;;2.63;0.90;;;21.20;62.10;;;;;;5072788;28;20941;-73
2023/09/24 10:53:10;;;;;;;3.55;0.88;;;21.40;59.40;;;;;;5064793;28;20904;-73
2023/09/24 10:55:39;;;;;;;2.58;0.82;;;21.60;58.90;;;;;;5065351;28;20431;-73
2023/09/24 10:58:11;;;;;;;1.48;1.00;;;21.80;58.80;;;;;;5068758;28;20427;-73
2023/09/24 11:00:38;;;;;;;3.60;1.30;;;22.10;57.30;;;;;;5067190;28;20402;-74
2023/09/24 11:03:08;;;;;;;2.67;1.20;;;22.00;56.10;;;;;;5068129;28;20508;-73
2023/09/24 11:05:36;;;;;;;2.10;1.20;;;21.80;56.30;;;;;;5064949;28;20407;-73
2023/09/24 11:08:04;;;;;;;1.70;1.00;;;21.90;56.10;;;;;;5067074;28;20528;-73
2023/09/24 11:10:31;;;;;;;2.95;1.40;;;21.90;56.50;;;;;;5065244;28;20429;-73
2023/09/24 11:13:00;;;;;;;2.25;0.95;;;22.00;56.20;;;;;;5065498;28;20414;-73
2023/09/24 11:15:31;;;;;;;3.83;1.70;;;21.90;54.90;;;;;;5064096;28;20608;-73
2023/09/24 11:17:58;;;;;;;2.17;0.90;;;21.90;56.90;;;;;;5065782;28;20436;-73
2023/09/24 11:20:28;;;;;;;2.55;1.00;;;22.00;56.90;;;;;;5067387;28;20778;-73
2023/09/24 11:22:59;;;;;;;1.88;1.10;;;22.20;55.10;;;;;;5064959;28;20598;-73
2023/09/24 11:25:26;;;;;;;3.30;1.00;;;22.20;54.70;;;;;;5063778;28;20424;-73
2023/09/24 11:27:55;;;;;;;1.77;1.20;;;22.30;54.20;;;;;;5065286;28;20427;-73
2023/09/24 11:30:23;;;;;;;1.88;1.10;;;22.30;52.60;;;;;;5064451;28;20436;-73
2023/09/24 11:32:52;;;;;;;1.85;0.85;;;22.10;52.80;;;;;;5063610;28;20851;-73
2023/09/24 11:35:20;;;;;;;2.28;0.98;;;22.10;51.90;;;;;;5063921;28;20502;-73
2023/09/24 11:37:53;;;;;;;3.27;1.10;;;22.10;52.30;;;;;;5064867;28;20427;-73
2023/09/24 11:40:28;;;;;;;2.47;1.00;;;22.20;52.70;;;;;;5064629;28;20430;-73
2023/09/24 11:42:57;;;;;;;1.88;1.00;;;22.20;50.80;;;;;;5056522;28;20465;-73
2023/09/24 11:45:46;;;;;;;1.90;1.00;;;22.20;50.80;;;;;;5064162;28;20762;-72
2023/09/24 11:48:14;;;;;;;1.90;1.02;;;22.20;50.30;;;;;;5064775;28;20411;-72
2023/09/24 11:50:43;;;;;;;2.72;1.00;;;22.10;50.90;;;;;;5064472;28;20447;-73
2023/09/24 11:53:12;;;;;;;1.73;0.90;;;22.20;50.90;;;;;;5063740;28;20877;-72
2023/09/24 11:55:40;;;;;;;2.13;1.00;;;22.30;51.50;;;;;;5061394;28;20886;-72
2023/09/24 11:58:08;;;;;;;1.70;1.05;;;22.30;50.70;;;;;;5063959;28;20797;-72
2023/09/24 12:00:37;;;;;;;2.10;0.82;;;22.50;51.20;;;;;;5065789;28;20452;-72
2023/09/24 12:03:05;;;;;;;1.80;0.90;;;22.50;50.00;;;;;;5065019;28;20677;-72
2023/09/24 12:05:32;;;;;;;2.38;0.90;;;22.60;50.30;;;;;;5063721;28;20519;-72
2023/09/24 12:07:59;;;;;;;2.95;0.90;;;22.70;49.00;;;;;;5064167;28;20422;-71
2023/09/24 12:10:28;;;;;;;1.70;0.90;;;22.70;48.40;;;;;;5066817;28;20423;-72
2023/09/24 12:12:55;;;;;;;1.60;0.70;;;22.70;48.80;;;;;;5064003;28;20487;-72
2023/09/24 12:15:23;;;;;;;1.92;1.00;;;22.70;47.90;;;;;;5063174;28;20431;-71
2023/09/24 12:17:55;;;;;;;2.00;1.00;;;23.00;49.30;;;;;;5062042;28;20431;-72
2023/09/24 12:20:21;;;;;;;2.00;1.00;;;23.10;44.90;;;;;;5063919;28;20432;-72
2023/09/24 12:22:48;;;;;;;1.60;0.85;;;23.00;45.20;;;;;;5063890;28;20863;-72
2023/09/24 12:25:15;;;;;;;1.73;0.90;;;22.70;46.50;;;;;;5064374;28;20418;-72
2023/09/24 12:27:43;;;;;;;2.15;0.90;;;22.70;46.90;;;;;;5058638;28;20730;-72
2023/09/24 12:30:12;;;;;;;1.75;0.90;;;22.60;45.90;;;;;;5062763;28;20423;-72
2023/09/24 12:32:39;;;;;;;1.80;1.00;;;22.50;46.10;;;;;;5064200;28;20511;-72
2023/09/24 12:35:07;;;;;;;1.70;0.90;;;22.50;47.70;;;;;;5062681;28;20434;-72
2023/09/24 12:37:35;;;;;;;1.63;1.00;;;22.60;47.20;;;;;;5063522;28;20435;-71
2023/09/24 12:40:06;;;;;;;2.33;0.90;;;23.10;46.30;;;;;;5063183;28;20472;-71
2023/09/24 12:42:33;;;;;;;1.70;0.90;;;23.30;44.30;;;;;;5056486;28;20408;-71
2023/09/24 12:45:02;;;;;;;1.70;0.90;;;23.20;43.20;;;;;;5063839;28;20403;-72
2023/09/24 12:47:31;;;;;;;2.22;0.90;;;23.10;43.40;;;;;;5061805;28;20450;-71
2023/09/24 12:49:58;;;;;;;2.05;0.90;;;23.10;43.50;;;;;;5063448;28;20546;-71
2023/09/24 12:52:26;;;;;;;2.40;1.00;;;23.20;43.60;;;;;;5063342;28;20416;-71